Terminal Aerodrome Forecast
Issued by NWS

Home | Current Version | Previous Version | Graphics & Text | Print | Product List | Glossary On
Versions: 1 2 3 4 5 6 7 8 9 10 11 12 13 14 15 16 17 18 19 20 21 22
000
FTUS41 KCLE 191300 AAB
TAFFDY
TAF AMD
KFDY 191322Z 1913/2012 10006KT P6SM SCT030
     FM192200 12006KT P6SM SCT250
     FM200400 19003KT P6SM SCT200=

USA.gov is the U.S. government's official web portal to all federal, state and local government web resources and services.